sensor_id;sensor_type;location;lat;lon;timestamp;pressure;altitude;pressure_sealevel;temperature
20736;BMP180;10528;52.124;5.196;2023-03-15T00:01:18;101032.00;;;10.50
20736;BMP180;10528;52.124;5.196;2023-03-15T00:03:46;101028.00;;;10.50
20736;BMP180;10528;52.124;5.196;2023-03-15T00:06:14;101030.00;;;10.50
20736;BMP180;10528;52.124;5.196;2023-03-15T00:08:41;101038.00;;;10.50
20736;BMP180;10528;52.124;5.196;2023-03-15T00:11:17;101032.00;;;10.60
20736;BMP180;10528;52.124;5.196;2023-03-15T00:13:45;101032.00;;;10.50
20736;BMP180;10528;52.124;5.196;2023-03-15T00:16:13;101032.00;;;10.50
20736;BMP180;10528;52.124;5.196;2023-03-15T00:18:46;101032.00;;;10.50
20736;BMP180;10528;52.124;5.196;2023-03-15T00:21:14;101032.00;;;10.50
20736;BMP180;10528;52.124;5.196;2023-03-15T00:23:41;101018.00;;;10.50
20736;BMP180;10528;52.124;5.196;2023-03-15T00:26:08;101033.00;;;10.50
20736;BMP180;10528;52.124;5.196;2023-03-15T00:28:35;101039.00;;;10.50
20736;BMP180;10528;52.124;5.196;2023-03-15T00:31:22;101036.00;;;10.40
20736;BMP180;10528;52.124;5.196;2023-03-15T00:33:50;101038.00;;;10.40
20736;BMP180;10528;52.124;5.196;2023-03-15T00:36:24;101039.00;;;10.40
20736;BMP180;10528;52.124;5.196;2023-03-15T00:38:54;101044.00;;;10.40
20736;BMP180;10528;52.124;5.196;2023-03-15T00:41:22;101037.00;;;10.40
20736;BMP180;10528;52.124;5.196;2023-03-15T00:43:50;101046.00;;;10.40
20736;BMP180;10528;52.124;5.196;2023-03-15T00:46:18;101042.00;;;10.30
20736;BMP180;10528;52.124;5.196;2023-03-15T00:48:50;101039.00;;;10.30
20736;BMP180;10528;52.124;5.196;2023-03-15T00:51:21;101047.00;;;10.30
20736;BMP180;10528;52.124;5.196;2023-03-15T00:53:50;101056.00;;;10.30
20736;BMP180;10528;52.124;5.196;2023-03-15T00:56:26;101056.00;;;10.30
20736;BMP180;10528;52.124;5.196;2023-03-15T00:58:57;101065.00;;;10.20
20736;BMP180;10528;52.124;5.196;2023-03-15T01:01:27;101065.00;;;10.20
20736;BMP180;10528;52.124;5.196;2023-03-15T01:03:55;101073.00;;;10.20
20736;BMP180;10528;52.124;5.196;2023-03-15T01:06:27;101072.00;;;10.30
20736;BMP180;10528;52.124;5.196;2023-03-15T01:08:54;101065.00;;;10.30
20736;BMP180;10528;52.124;5.196;2023-03-15T01:11:26;101081.00;;;10.30
20736;BMP180;10528;52.124;5.196;2023-03-15T01:13:57;101082.00;;;10.30
20736;BMP180;10528;52.124;5.196;2023-03-15T01:16:26;101081.00;;;10.30
20736;BMP180;10528;52.124;5.196;2023-03-15T01:18:53;101087.00;;;10.30
20736;BMP180;10528;52.124;5.196;2023-03-15T01:21:22;101085.00;;;10.30
20736;BMP180;10528;52.124;5.196;2023-03-15T01:23:50;101087.00;;;10.30
20736;BMP180;10528;52.124;5.196;2023-03-15T01:26:20;101099.00;;;10.30
20736;BMP180;10528;52.124;5.196;2023-03-15T01:28:49;101088.00;;;10.30
20736;BMP180;10528;52.124;5.196;2023-03-15T01:31:29;101099.00;;;10.30
20736;BMP180;10528;52.124;5.196;2023-03-15T01:33:57;101099.00;;;10.30
20736;BMP180;10528;52.124;5.196;2023-03-15T01:36:27;101099.00;;;10.30
20736;BMP180;10528;52.124;5.196;2023-03-15T01:38:54;101105.00;;;10.30
20736;BMP180;10528;52.124;5.196;2023-03-15T01:41:26;101102.00;;;10.30
20736;BMP180;10528;52.124;5.196;2023-03-15T01:43:53;101106.00;;;10.30
20736;BMP180;10528;52.124;5.196;2023-03-15T01:46:30;101115.00;;;10.30
20736;BMP180;10528;52.124;5.196;2023-03-15T01:49:30;101111.00;;;10.30
20736;BMP180;10528;52.124;5.196;2023-03-15T01:52:25;101116.00;;;10.30
20736;BMP180;10528;52.124;5.196;2023-03-15T01:55:09;101135.00;;;10.30
20736;BMP180;10528;52.124;5.196;2023-03-15T01:57:51;101129.00;;;10.30
20736;BMP180;10528;52.124;5.196;2023-03-15T02:00:23;101130.00;;;10.30
20736;BMP180;10528;52.124;5.196;2023-03-15T02:03:07;101138.00;;;10.30
20736;BMP180;10528;52.124;5.196;2023-03-15T02:05:46;101128.00;;;10.20
20736;BMP180;10528;52.124;5.196;2023-03-15T02:08:30;101129.00;;;10.20
20736;BMP180;10528;52.124;5.196;2023-03-15T02:11:01;101134.00;;;10.20
20736;BMP180;10528;52.124;5.196;2023-03-15T02:13:31;101135.00;;;10.20
20736;BMP180;10528;52.124;5.196;2023-03-15T02:16:04;101131.00;;;10.20
20736;BMP180;10528;52.124;5.196;2023-03-15T02:18:39;101141.00;;;10.20
20736;BMP180;10528;52.124;5.196;2023-03-15T02:21:35;101148.00;;;10.10
20736;BMP180;10528;52.124;5.196;2023-03-15T02:24:51;101135.00;;;10.10
20736;BMP180;10528;52.124;5.196;2023-03-15T02:27:35;101149.00;;;10.10
20736;BMP180;10528;52.124;5.196;2023-03-15T02:30:04;101149.00;;;10.10
20736;BMP180;10528;52.124;5.196;2023-03-15T02:32:32;101146.00;;;10.10
20736;BMP180;10528;52.124;5.196;2023-03-15T02:34:59;101146.00;;;10.10
20736;BMP180;10528;52.124;5.196;2023-03-15T02:37:26;101158.00;;;10.10
20736;BMP180;10528;52.124;5.196;2023-03-15T02:39:53;101164.00;;;10.00
20736;BMP180;10528;52.124;5.196;2023-03-15T02:42:20;101170.00;;;10.00
20736;BMP180;10528;52.124;5.196;2023-03-15T02:44:49;101170.00;;;10.00
20736;BMP180;10528;52.124;5.196;2023-03-15T02:47:27;101175.00;;;10.00
20736;BMP180;10528;52.124;5.196;2023-03-15T02:49:57;101178.00;;;10.00
20736;BMP180;10528;52.124;5.196;2023-03-15T02:52:24;101179.00;;;10.00
20736;BMP180;10528;52.124;5.196;2023-03-15T02:54:51;101181.00;;;9.90
20736;BMP180;10528;52.124;5.196;2023-03-15T02:57:20;101193.00;;;9.90
20736;BMP180;10528;52.124;5.196;2023-03-15T02:59:47;101195.00;;;9.90
20736;BMP180;10528;52.124;5.196;2023-03-15T03:02:16;101203.00;;;9.90
20736;BMP180;10528;52.124;5.196;2023-03-15T03:04:43;101209.00;;;9.90
20736;BMP180;10528;52.124;5.196;2023-03-15T03:07:11;101203.00;;;9.80
20736;BMP180;10528;52.124;5.196;2023-03-15T03:09:52;101215.00;;;9.80
20736;BMP180;10528;52.124;5.196;2023-03-15T03:12:20;101215.00;;;9.80
20736;BMP180;10528;52.124;5.196;2023-03-15T03:14:47;101227.00;;;9.80
20736;BMP180;10528;52.124;5.196;2023-03-15T03:17:17;101228.00;;;9.70
20736;BMP180;10528;52.124;5.196;2023-03-15T03:19:44;101225.00;;;9.70
20736;BMP180;10528;52.124;5.196;2023-03-15T03:22:13;101233.00;;;9.70
20736;BMP180;10528;52.124;5.196;2023-03-15T03:24:40;101235.00;;;9.70
20736;BMP180;10528;52.124;5.196;2023-03-15T03:27:13;101239.00;;;9.70
20736;BMP180;10528;52.124;5.196;2023-03-15T03:29:45;101241.00;;;9.70
20736;BMP180;10528;52.124;5.196;2023-03-15T03:32:12;101255.00;;;9.60
20736;BMP180;10528;52.124;5.196;2023-03-15T03:34:39;101246.00;;;9.60
20736;BMP180;10528;52.124;5.196;2023-03-15T03:37:07;101261.00;;;9.60
20736;BMP180;10528;52.124;5.196;2023-03-15T03:39:51;101258.00;;;9.60
20736;BMP180;10528;52.124;5.196;2023-03-15T03:42:18;101256.00;;;9.60
20736;BMP180;10528;52.124;5.196;2023-03-15T03:44:44;101262.00;;;9.50
20736;BMP180;10528;52.124;5.196;2023-03-15T03:47:12;101285.00;;;9.50
20736;BMP180;10528;52.124;5.196;2023-03-15T03:49:39;101281.00;;;9.50
20736;BMP180;10528;52.124;5.196;2023-03-15T03:52:06;101284.00;;;9.50
20736;BMP180;10528;52.124;5.196;2023-03-15T03:54:33;101287.00;;;9.50
20736;BMP180;10528;52.124;5.196;2023-03-15T03:57:00;101277.00;;;9.40
20736;BMP180;10528;52.124;5.196;2023-03-15T03:59:31;101286.00;;;9.40
20736;BMP180;10528;52.124;5.196;2023-03-15T04:02:03;101294.00;;;9.40
20736;BMP180;10528;52.124;5.196;2023-03-15T04:04:30;101303.00;;;9.40
20736;BMP180;10528;52.124;5.196;2023-03-15T04:06:58;101291.00;;;9.40
20736;BMP180;10528;52.124;5.196;2023-03-15T04:09:30;101288.00;;;9.30
20736;BMP180;10528;52.124;5.196;2023-03-15T04:11:57;101298.00;;;9.30
20736;BMP180;10528;52.124;5.196;2023-03-15T04:14:24;101304.00;;;9.30
20736;BMP180;10528;52.124;5.196;2023-03-15T04:16:52;101302.00;;;9.30
20736;BMP180;10528;52.124;5.196;2023-03-15T04:19:21;101320.00;;;9.20
20736;BMP180;10528;52.124;5.196;2023-03-15T04:21:49;101314.00;;;9.20
20736;BMP180;10528;52.124;5.196;2023-03-15T04:24:56;101309.00;;;9.20
20736;BMP180;10528;52.124;5.196;2023-03-15T04:27:55;101326.00;;;9.10
20736;BMP180;10528;52.124;5.196;2023-03-15T04:30:44;101325.00;;;9.10
20736;BMP180;10528;52.124;5.196;2023-03-15T04:33:20;101326.00;;;9.10
20736;BMP180;10528;52.124;5.196;2023-03-15T04:36:13;101329.00;;;9.10
20736;BMP180;10528;52.124;5.196;2023-03-15T04:38:59;101335.00;;;9.00
20736;BMP180;10528;52.124;5.196;2023-03-15T04:41:45;101332.00;;;9.00
20736;BMP180;10528;52.124;5.196;2023-03-15T04:44:40;101337.00;;;9.00
20736;BMP180;10528;52.124;5.196;2023-03-15T04:47:13;101333.00;;;9.00
20736;BMP180;10528;52.124;5.196;2023-03-15T04:50:01;101340.00;;;9.00
20736;BMP180;10528;52.124;5.196;2023-03-15T04:52:44;101350.00;;;9.00
20736;BMP180;10528;52.124;5.196;2023-03-15T04:55:40;101360.00;;;9.00
20736;BMP180;10528;52.124;5.196;2023-03-15T04:58:21;101363.00;;;9.00
20736;BMP180;10528;52.124;5.196;2023-03-15T05:01:02;101360.00;;;9.00
20736;BMP180;10528;52.124;5.196;2023-03-15T05:03:47;101370.00;;;9.00
20736;BMP180;10528;52.124;5.196;2023-03-15T05:06:28;101380.00;;;9.00
20736;BMP180;10528;52.124;5.196;2023-03-15T05:09:21;101380.00;;;9.00
20736;BMP180;10528;52.124;5.196;2023-03-15T05:12:14;101384.00;;;9.00
20736;BMP180;10528;52.124;5.196;2023-03-15T05:15:06;101381.00;;;9.10
20736;BMP180;10528;52.124;5.196;2023-03-15T05:17:51;101398.00;;;9.10
20736;BMP180;10528;52.124;5.196;2023-03-15T05:20:58;101400.00;;;9.10
20736;BMP180;10528;52.124;5.196;2023-03-15T05:23:41;101399.00;;;9.10
20736;BMP180;10528;52.124;5.196;2023-03-15T05:26:28;101408.00;;;9.10
20736;BMP180;10528;52.124;5.196;2023-03-15T05:29:14;101407.00;;;9.10
20736;BMP180;10528;52.124;5.196;2023-03-15T05:32:10;101402.00;;;9.10
20736;BMP180;10528;52.124;5.196;2023-03-15T05:34:48;101423.00;;;9.10
20736;BMP180;10528;52.124;5.196;2023-03-15T05:37:32;101426.00;;;9.10
20736;BMP180;10528;52.124;5.196;2023-03-15T05:40:27;101429.00;;;9.10
20736;BMP180;10528;52.124;5.196;2023-03-15T05:43:13;101434.00;;;9.10
20736;BMP180;10528;52.124;5.196;2023-03-15T05:45:53;101432.00;;;9.10
20736;BMP180;10528;52.124;5.196;2023-03-15T05:48:33;101445.00;;;9.10
20736;BMP180;10528;52.124;5.196;2023-03-15T05:51:12;101451.00;;;9.10
20736;BMP180;10528;52.124;5.196;2023-03-15T05:54:08;101446.00;;;9.20
20736;BMP180;10528;52.124;5.196;2023-03-15T05:56:55;101458.00;;;9.20
20736;BMP180;10528;52.124;5.196;2023-03-15T05:59:40;101456.00;;;9.20
20736;BMP180;10528;52.124;5.196;2023-03-15T06:02:40;101466.00;;;9.20
20736;BMP180;10528;52.124;5.196;2023-03-15T06:05:36;101472.00;;;9.20
20736;BMP180;10528;52.124;5.196;2023-03-15T06:08:06;101472.00;;;9.30
20736;BMP180;10528;52.124;5.196;2023-03-15T06:10:37;101473.00;;;9.30
20736;BMP180;10528;52.124;5.196;2023-03-15T06:13:07;101468.00;;;9.30
20736;BMP180;10528;52.124;5.196;2023-03-15T06:15:33;101476.00;;;9.30
20736;BMP180;10528;52.124;5.196;2023-03-15T06:18:01;101461.00;;;9.30
20736;BMP180;10528;52.124;5.196;2023-03-15T06:20:28;101473.00;;;9.30
20736;BMP180;10528;52.124;5.196;2023-03-15T06:22:59;101470.00;;;9.30
20736;BMP180;10528;52.124;5.196;2023-03-15T06:25:33;101484.00;;;9.30
20736;BMP180;10528;52.124;5.196;2023-03-15T06:28:00;101482.00;;;9.30
20736;BMP180;10528;52.124;5.196;2023-03-15T06:30:28;101495.00;;;9.40
20736;BMP180;10528;52.124;5.196;2023-03-15T06:32:58;101497.00;;;9.40
20736;BMP180;10528;52.124;5.196;2023-03-15T06:35:25;101503.00;;;9.50
20736;BMP180;10528;52.124;5.196;2023-03-15T06:37:52;101514.00;;;9.50
20736;BMP180;10528;52.124;5.196;2023-03-15T06:40:19;101520.00;;;9.60
20736;BMP180;10528;52.124;5.196;2023-03-15T06:42:47;101523.00;;;9.80
20736;BMP180;10528;52.124;5.196;2023-03-15T06:45:16;101514.00;;;10.10
20736;BMP180;10528;52.124;5.196;2023-03-15T06:47:44;101530.00;;;10.30
20736;BMP180;10528;52.124;5.196;2023-03-15T06:50:12;101530.00;;;10.50
20736;BMP180;10528;52.124;5.196;2023-03-15T06:52:39;101542.00;;;10.70
20736;BMP180;10528;52.124;5.196;2023-03-15T06:55:06;101540.00;;;10.80
20736;BMP180;10528;52.124;5.196;2023-03-15T06:57:33;101546.00;;;10.90
20736;BMP180;10528;52.124;5.196;2023-03-15T07:00:00;101542.00;;;10.90
20736;BMP180;10528;52.124;5.196;2023-03-15T07:02:27;101556.00;;;10.90
20736;BMP180;10528;52.124;5.196;2023-03-15T07:04:54;101559.00;;;10.90
20736;BMP180;10528;52.124;5.196;2023-03-15T07:07:20;101558.00;;;10.80
20736;BMP180;10528;52.124;5.196;2023-03-15T07:09:47;101555.00;;;10.80
20736;BMP180;10528;52.124;5.196;2023-03-15T07:12:14;101572.00;;;10.70
20736;BMP180;10528;52.124;5.196;2023-03-15T07:14:41;101564.00;;;10.70
20736;BMP180;10528;52.124;5.196;2023-03-15T07:17:08;101575.00;;;10.70
20736;BMP180;10528;52.124;5.196;2023-03-15T07:19:35;101566.00;;;10.60
20736;BMP180;10528;52.124;5.196;2023-03-15T07:22:12;101577.00;;;10.60
20736;BMP180;10528;52.124;5.196;2023-03-15T07:24:39;101576.00;;;10.50
20736;BMP180;10528;52.124;5.196;2023-03-15T07:27:06;101584.00;;;10.50
20736;BMP180;10528;52.124;5.196;2023-03-15T07:29:33;101589.00;;;10.50
20736;BMP180;10528;52.124;5.196;2023-03-15T07:32:00;101593.00;;;10.50
20736;BMP180;10528;52.124;5.196;2023-03-15T07:34:27;101590.00;;;10.50
20736;BMP180;10528;52.124;5.196;2023-03-15T07:36:54;101593.00;;;10.50
20736;BMP180;10528;52.124;5.196;2023-03-15T07:39:21;101605.00;;;10.50
20736;BMP180;10528;52.124;5.196;2023-03-15T07:41:48;101616.00;;;10.50
20736;BMP180;10528;52.124;5.196;2023-03-15T07:44:22;101607.00;;;10.50
20736;BMP180;10528;52.124;5.196;2023-03-15T07:46:48;101622.00;;;10.50
20736;BMP180;10528;52.124;5.196;2023-03-15T07:49:16;101609.00;;;10.50
20736;BMP180;10528;52.124;5.196;2023-03-15T07:51:43;101619.00;;;10.50
20736;BMP180;10528;52.124;5.196;2023-03-15T07:54:09;101620.00;;;10.50
20736;BMP180;10528;52.124;5.196;2023-03-15T07:56:36;101626.00;;;10.50
20736;BMP180;10528;52.124;5.196;2023-03-15T07:59:03;101633.00;;;10.50
20736;BMP180;10528;52.124;5.196;2023-03-15T08:01:30;101638.00;;;10.50
20736;BMP180;10528;52.124;5.196;2023-03-15T08:03:57;101636.00;;;10.50
20736;BMP180;10528;52.124;5.196;2023-03-15T08:06:24;101646.00;;;10.50
20736;BMP180;10528;52.124;5.196;2023-03-15T08:08:50;101655.00;;;10.50
20736;BMP180;10528;52.124;5.196;2023-03-15T08:11:17;101662.00;;;10.50
20736;BMP180;10528;52.124;5.196;2023-03-15T08:13:44;101657.00;;;10.50
20736;BMP180;10528;52.124;5.196;2023-03-15T08:16:11;101643.00;;;10.60
20736;BMP180;10528;52.124;5.196;2023-03-15T08:18:39;101650.00;;;10.60
20736;BMP180;10528;52.124;5.196;2023-03-15T08:21:06;101653.00;;;10.60
20736;BMP180;10528;52.124;5.196;2023-03-15T08:23:32;101665.00;;;10.60
20736;BMP180;10528;52.124;5.196;2023-03-15T08:25:59;101669.00;;;10.60
20736;BMP180;10528;52.124;5.196;2023-03-15T08:28:27;101670.00;;;10.60
20736;BMP180;10528;52.124;5.196;2023-03-15T08:30:53;101669.00;;;10.60
20736;BMP180;10528;52.124;5.196;2023-03-15T08:33:20;101676.00;;;10.60
20736;BMP180;10528;52.124;5.196;2023-03-15T08:35:52;101687.00;;;10.70
20736;BMP180;10528;52.124;5.196;2023-03-15T08:38:19;101689.00;;;10.70
20736;BMP180;10528;52.124;5.196;2023-03-15T08:40:46;101691.00;;;10.70
20736;BMP180;10528;52.124;5.196;2023-03-15T08:43:13;101694.00;;;10.80
20736;BMP180;10528;52.124;5.196;2023-03-15T08:45:40;101692.00;;;10.80
20736;BMP180;10528;52.124;5.196;2023-03-15T08:48:26;101686.00;;;10.80
20736;BMP180;10528;52.124;5.196;2023-03-15T08:50:53;101701.00;;;10.80
20736;BMP180;10528;52.124;5.196;2023-03-15T08:53:20;101694.00;;;10.80
20736;BMP180;10528;52.124;5.196;2023-03-15T08:55:47;101700.00;;;10.90
20736;BMP180;10528;52.124;5.196;2023-03-15T08:58:15;101702.00;;;10.90
20736;BMP180;10528;52.124;5.196;2023-03-15T09:00:42;101702.00;;;10.90
20736;BMP180;10528;52.124;5.196;2023-03-15T09:03:09;101703.00;;;10.90
20736;BMP180;10528;52.124;5.196;2023-03-15T09:05:35;101694.00;;;10.90
20736;BMP180;10528;52.124;5.196;2023-03-15T09:08:03;101701.00;;;11.00
20736;BMP180;10528;52.124;5.196;2023-03-15T09:10:30;101699.00;;;11.00
20736;BMP180;10528;52.124;5.196;2023-03-15T09:12:57;101706.00;;;11.00
20736;BMP180;10528;52.124;5.196;2023-03-15T09:15:24;101695.00;;;11.00
20736;BMP180;10528;52.124;5.196;2023-03-15T09:17:51;101694.00;;;11.10
20736;BMP180;10528;52.124;5.196;2023-03-15T09:20:19;101697.00;;;11.10
20736;BMP180;10528;52.124;5.196;2023-03-15T09:22:55;101698.00;;;11.10
20736;BMP180;10528;52.124;5.196;2023-03-15T09:25:24;101701.00;;;11.20
20736;BMP180;10528;52.124;5.196;2023-03-15T09:27:51;101691.00;;;11.20
20736;BMP180;10528;52.124;5.196;2023-03-15T09:30:18;101708.00;;;11.20
20736;BMP180;10528;52.124;5.196;2023-03-15T09:32:46;101699.00;;;11.20
20736;BMP180;10528;52.124;5.196;2023-03-15T09:35:17;101695.00;;;11.30
20736;BMP180;10528;52.124;5.196;2023-03-15T09:37:45;101695.00;;;11.30
20736;BMP180;10528;52.124;5.196;2023-03-15T09:40:23;101709.00;;;11.40
20736;BMP180;10528;52.124;5.196;2023-03-15T09:46:28;101711.00;;;11.50
20736;BMP180;10528;52.124;5.196;2023-03-15T09:52:02;101704.00;;;11.60
20736;BMP180;10528;52.124;5.196;2023-03-15T09:54:56;101711.00;;;11.60
20736;BMP180;10528;52.124;5.196;2023-03-15T10:00:12;101710.00;;;11.70
20736;BMP180;10528;52.124;5.196;2023-03-15T10:02:50;101714.00;;;11.80
20736;BMP180;10528;52.124;5.196;2023-03-15T10:05:27;101720.00;;;11.90
20736;BMP180;10528;52.124;5.196;2023-03-15T10:07:57;101718.00;;;12.00
20736;BMP180;10528;52.124;5.196;2023-03-15T10:10:33;101708.00;;;12.20
20736;BMP180;10528;52.124;5.196;2023-03-15T10:16:15;101719.00;;;12.40
20736;BMP180;10528;52.124;5.196;2023-03-15T10:21:51;101721.00;;;12.70
20736;BMP180;10528;52.124;5.196;2023-03-15T10:27:08;101724.00;;;12.90
20736;BMP180;10528;52.124;5.196;2023-03-15T10:29:38;101714.00;;;13.00
20736;BMP180;10528;52.124;5.196;2023-03-15T10:32:14;101721.00;;;13.00
20736;BMP180;10528;52.124;5.196;2023-03-15T10:34:51;101714.00;;;13.10
20736;BMP180;10528;52.124;5.196;2023-03-15T10:37:23;101724.00;;;13.10
20736;BMP180;10528;52.124;5.196;2023-03-15T10:39:58;101727.00;;;13.10
20736;BMP180;10528;52.124;5.196;2023-03-15T10:42:31;101721.00;;;13.20
20736;BMP180;10528;52.124;5.196;2023-03-15T10:45:23;101731.00;;;13.40
20736;BMP180;10528;52.124;5.196;2023-03-15T10:47:51;101726.00;;;13.50
20736;BMP180;10528;52.124;5.196;2023-03-15T10:50:32;101742.00;;;13.50
20736;BMP180;10528;52.124;5.196;2023-03-15T10:53:08;101749.00;;;13.70
20736;BMP180;10528;52.124;5.196;2023-03-15T10:55:43;101761.00;;;13.80
20736;BMP180;10528;52.124;5.196;2023-03-15T10:58:41;101760.00;;;13.90
20736;BMP180;10528;52.124;5.196;2023-03-15T11:01:29;101757.00;;;14.00
20736;BMP180;10528;52.124;5.196;2023-03-15T11:04:16;101752.00;;;14.10
20736;BMP180;10528;52.124;5.196;2023-03-15T11:07:00;101760.00;;;14.20
20736;BMP180;10528;52.124;5.196;2023-03-15T11:09:49;101781.00;;;14.30
20736;BMP180;10528;52.124;5.196;2023-03-15T11:12:29;101771.00;;;14.30
20736;BMP180;10528;52.124;5.196;2023-03-15T11:15:00;101778.00;;;14.40
20736;BMP180;10528;52.124;5.196;2023-03-15T11:17:33;101788.00;;;14.50
20736;BMP180;10528;52.124;5.196;2023-03-15T11:22:53;101787.00;;;14.60
20736;BMP180;10528;52.124;5.196;2023-03-15T11:25:25;101782.00;;;14.60
20736;BMP180;10528;52.124;5.196;2023-03-15T11:27:54;101782.00;;;14.80
20736;BMP180;10528;52.124;5.196;2023-03-15T11:30:28;101779.00;;;14.80
20736;BMP180;10528;52.124;5.196;2023-03-15T11:33:04;101784.00;;;14.90
20736;BMP180;10528;52.124;5.196;2023-03-15T11:35:42;101776.00;;;14.90
20736;BMP180;10528;52.124;5.196;2023-03-15T11:38:39;101775.00;;;15.00
20736;BMP180;10528;52.124;5.196;2023-03-15T11:41:24;101773.00;;;15.10
20736;BMP180;10528;52.124;5.196;2023-03-15T11:44:07;101777.00;;;15.10
20736;BMP180;10528;52.124;5.196;2023-03-15T11:47:40;101775.00;;;15.10
20736;BMP180;10528;52.124;5.196;2023-03-15T11:50:05;101768.00;;;15.20
20736;BMP180;10528;52.124;5.196;2023-03-15T11:52:32;101771.00;;;15.30
20736;BMP180;10528;52.124;5.196;2023-03-15T11:55:01;101773.00;;;15.30
20736;BMP180;10528;52.124;5.196;2023-03-15T11:57:41;101761.00;;;15.30
20736;BMP180;10528;52.124;5.196;2023-03-15T12:01:23;101777.00;;;15.40
20736;BMP180;10528;52.124;5.196;2023-03-15T12:03:43;101757.00;;;15.40
20736;BMP180;10528;52.124;5.196;2023-03-15T12:08:53;101773.00;;;15.50
20736;BMP180;10528;52.124;5.196;2023-03-15T12:16:37;101772.00;;;15.60
20736;BMP180;10528;52.124;5.196;2023-03-15T12:19:18;101774.00;;;15.70
20736;BMP180;10528;52.124;5.196;2023-03-15T12:21:51;101786.00;;;15.70
20736;BMP180;10528;52.124;5.196;2023-03-15T12:27:15;101788.00;;;15.70
20736;BMP180;10528;52.124;5.196;2023-03-15T12:29:46;101781.00;;;15.70
20736;BMP180;10528;52.124;5.196;2023-03-15T12:32:16;101769.00;;;15.70
20736;BMP180;10528;52.124;5.196;2023-03-15T12:34:48;101776.00;;;15.70
20736;BMP180;10528;52.124;5.196;2023-03-15T12:37:49;101785.00;;;15.70
20736;BMP180;10528;52.124;5.196;2023-03-15T12:53:15;101774.00;;;15.80
20736;BMP180;10528;52.124;5.196;2023-03-15T12:55:43;101780.00;;;15.90
20736;BMP180;10528;52.124;5.196;2023-03-15T12:58:12;101769.00;;;15.90
20736;BMP180;10528;52.124;5.196;2023-03-15T13:00:42;101783.00;;;16.00
20736;BMP180;10528;52.124;5.196;2023-03-15T13:03:19;101785.00;;;16.00
20736;BMP180;10528;52.124;5.196;2023-03-15T13:06:21;101776.00;;;15.90
20736;BMP180;10528;52.124;5.196;2023-03-15T13:09:12;101770.00;;;15.90
20736;BMP180;10528;52.124;5.196;2023-03-15T13:12:07;101778.00;;;16.00
20736;BMP180;10528;52.124;5.196;2023-03-15T13:15:10;101772.00;;;16.10
20736;BMP180;10528;52.124;5.196;2023-03-15T13:17:52;101761.00;;;16.10
20736;BMP180;10528;52.124;5.196;2023-03-15T13:23:30;101756.00;;;16.10
20736;BMP180;10528;52.124;5.196;2023-03-15T13:26:20;101762.00;;;16.20
20736;BMP180;10528;52.124;5.196;2023-03-15T13:29:26;101766.00;;;16.20
20736;BMP180;10528;52.124;5.196;2023-03-15T13:32:16;101776.00;;;16.20
20736;BMP180;10528;52.124;5.196;2023-03-15T13:34:45;101768.00;;;16.20
20736;BMP180;10528;52.124;5.196;2023-03-15T13:37:24;101782.00;;;16.20
20736;BMP180;10528;52.124;5.196;2023-03-15T13:40:10;101786.00;;;16.20
20736;BMP180;10528;52.124;5.196;2023-03-15T13:42:40;101778.00;;;16.20
20736;BMP180;10528;52.124;5.196;2023-03-15T13:45:13;101782.00;;;16.20
20736;BMP180;10528;52.124;5.196;2023-03-15T13:47:42;101775.00;;;16.20
20736;BMP180;10528;52.124;5.196;2023-03-15T13:50:18;101782.00;;;16.20
20736;BMP180;10528;52.124;5.196;2023-03-15T13:52:47;101776.00;;;16.20
20736;BMP180;10528;52.124;5.196;2023-03-15T13:55:21;101786.00;;;16.20
20736;BMP180;10528;52.124;5.196;2023-03-15T13:57:56;101785.00;;;16.00
20736;BMP180;10528;52.124;5.196;2023-03-15T14:00:26;101788.00;;;16.10
20736;BMP180;10528;52.124;5.196;2023-03-15T14:03:00;101789.00;;;16.20
20736;BMP180;10528;52.124;5.196;2023-03-15T14:05:41;101776.00;;;16.20
20736;BMP180;10528;52.124;5.196;2023-03-15T14:08:32;101796.00;;;16.10
20736;BMP180;10528;52.124;5.196;2023-03-15T14:11:06;101786.00;;;16.10
20736;BMP180;10528;52.124;5.196;2023-03-15T14:13:50;101794.00;;;16.10
20736;BMP180;10528;52.124;5.196;2023-03-15T14:16:39;101793.00;;;16.10
20736;BMP180;10528;52.124;5.196;2023-03-15T14:19:31;101792.00;;;16.10
20736;BMP180;10528;52.124;5.196;2023-03-15T14:22:13;101801.00;;;16.10
20736;BMP180;10528;52.124;5.196;2023-03-15T14:24:46;101783.00;;;16.10
20736;BMP180;10528;52.124;5.196;2023-03-15T14:27:21;101798.00;;;16.10
20736;BMP180;10528;52.124;5.196;2023-03-15T14:29:52;101799.00;;;16.10
20736;BMP180;10528;52.124;5.196;2023-03-15T14:32:33;101795.00;;;16.10
20736;BMP180;10528;52.124;5.196;2023-03-15T14:35:28;101799.00;;;16.10
20736;BMP180;10528;52.124;5.196;2023-03-15T14:38:18;101790.00;;;16.00
20736;BMP180;10528;52.124;5.196;2023-03-15T14:40:48;101791.00;;;16.00
20736;BMP180;10528;52.124;5.196;2023-03-15T14:43:15;101777.00;;;16.00
20736;BMP180;10528;52.124;5.196;2023-03-15T14:45:45;101774.00;;;16.00
20736;BMP180;10528;52.124;5.196;2023-03-15T14:48:25;101781.00;;;16.00
20736;BMP180;10528;52.124;5.196;2023-03-15T14:50:53;101774.00;;;16.00
20736;BMP180;10528;52.124;5.196;2023-03-15T14:53:24;101767.00;;;15.90
20736;BMP180;10528;52.124;5.196;2023-03-15T14:55:52;101772.00;;;15.90
20736;BMP180;10528;52.124;5.196;2023-03-15T14:58:21;101773.00;;;15.90
20736;BMP180;10528;52.124;5.196;2023-03-15T15:00:51;101776.00;;;15.80
20736;BMP180;10528;52.124;5.196;2023-03-15T15:05:58;101781.00;;;15.80
20736;BMP180;10528;52.124;5.196;2023-03-15T15:08:26;101768.00;;;15.80
20736;BMP180;10528;52.124;5.196;2023-03-15T15:10:56;101766.00;;;15.80
20736;BMP180;10528;52.124;5.196;2023-03-15T15:13:26;101763.00;;;15.80
20736;BMP180;10528;52.124;5.196;2023-03-15T15:15:54;101757.00;;;15.80
20736;BMP180;10528;52.124;5.196;2023-03-15T15:18:26;101765.00;;;15.80
20736;BMP180;10528;52.124;5.196;2023-03-15T15:20:54;101759.00;;;15.80
20736;BMP180;10528;52.124;5.196;2023-03-15T15:23:27;101764.00;;;15.80
20736;BMP180;10528;52.124;5.196;2023-03-15T15:26:01;101749.00;;;15.80
20736;BMP180;10528;52.124;5.196;2023-03-15T15:28:32;101752.00;;;15.80
20736;BMP180;10528;52.124;5.196;2023-03-15T15:31:05;101759.00;;;15.80